createdAt,value
2017-11-19T00:00:16.913Z,4.86
2017-11-19T00:01:16.872Z,4.84
2017-11-19T00:02:16.868Z,4.86
2017-11-19T00:03:16.872Z,4.86
2017-11-19T00:04:16.848Z,4.77
2017-11-19T00:05:16.842Z,4.82
2017-11-19T00:06:16.832Z,4.84
2017-11-19T00:07:16.835Z,4.89
2017-11-19T00:08:16.827Z,4.84
2017-11-19T00:09:16.833Z,4.75
2017-11-19T00:10:16.811Z,4.80
2017-11-19T00:11:16.804Z,4.74
2017-11-19T00:12:16.802Z,4.74
2017-11-19T00:13:16.796Z,4.77
2017-11-19T00:14:16.803Z,4.84
2017-11-19T00:15:16.788Z,4.84
2017-11-19T00:16:16.774Z,4.87
2017-11-19T00:17:16.769Z,4.89
2017-11-19T00:18:16.760Z,4.86
2017-11-19T00:19:16.756Z,4.74
2017-11-19T00:20:16.754Z,4.77
2017-11-19T00:21:16.752Z,4.86
2017-11-19T00:22:16.740Z,4.84
2017-11-19T00:23:16.732Z,4.86
2017-11-19T00:24:16.727Z,4.82
2017-11-19T00:25:16.724Z,4.86
2017-11-19T00:26:16.713Z,4.78
2017-11-19T00:27:16.705Z,4.82
2017-11-19T00:28:16.700Z,4.80
2017-11-19T00:29:16.690Z,4.80
2017-11-19T00:30:16.701Z,4.74
2017-11-19T00:31:16.675Z,4.87
2017-11-19T00:32:16.678Z,4.96
2017-11-19T00:33:16.683Z,4.80
2017-11-19T00:34:16.663Z,4.87
2017-11-19T00:35:16.661Z,4.82
2017-11-19T00:36:16.649Z,4.82
2017-11-19T00:37:16.642Z,4.77
2017-11-19T00:38:16.635Z,4.82
2017-11-19T00:39:16.632Z,4.77
2017-11-19T00:40:16.626Z,4.75
2017-11-19T00:41:16.615Z,4.78
2017-11-19T00:42:16.615Z,4.77
2017-11-19T00:43:16.610Z,4.73
2017-11-19T00:44:16.598Z,4.78
2017-11-19T00:45:16.592Z,4.77
2017-11-19T00:46:16.584Z,4.87
2017-11-19T00:47:16.572Z,4.74
2017-11-19T00:48:16.574Z,4.74
2017-11-19T00:49:16.565Z,4.84
2017-11-19T00:50:16.565Z,4.74
2017-11-19T00:51:16.553Z,4.86
2017-11-19T00:52:16.549Z,4.86
2017-11-19T00:53:16.556Z,4.86
2017-11-19T00:54:16.535Z,4.87
2017-11-19T00:55:16.525Z,4.82
2017-11-19T00:56:16.524Z,4.86
2017-11-19T00:57:16.517Z,4.93
2017-11-19T00:58:16.508Z,4.94
2017-11-19T00:59:16.503Z,4.89
2017-11-19T01:00:16.498Z,4.84
2017-11-19T01:01:16.490Z,4.86
2017-11-19T01:02:16.485Z,4.89
2017-11-19T01:03:16.474Z,4.86
2017-11-19T01:04:16.467Z,4.87
2017-11-19T01:05:16.465Z,4.84
2017-11-19T01:06:16.459Z,4.80
2017-11-19T01:07:16.453Z,4.74
2017-11-19T01:08:16.452Z,4.78
2017-11-19T01:09:16.439Z,4.78
2017-11-19T01:10:16.433Z,4.74
2017-11-19T01:11:16.426Z,4.78
2017-11-19T01:12:16.421Z,4.84
2017-11-19T01:13:16.416Z,4.74
2017-11-19T01:14:16.408Z,4.84
2017-11-19T01:15:16.405Z,4.78
2017-11-19T01:16:16.395Z,4.82
2017-11-19T01:17:16.389Z,4.74
2017-11-19T01:18:16.380Z,4.73
2017-11-19T01:19:16.408Z,4.80
2017-11-19T01:20:16.382Z,4.80
2017-11-19T01:21:16.364Z,4.74
2017-11-19T01:22:16.358Z,4.75
2017-11-19T01:23:16.354Z,4.86
2017-11-19T01:24:16.347Z,4.84
2017-11-19T01:25:16.339Z,4.80
2017-11-19T01:26:16.332Z,4.80
2017-11-19T01:27:16.327Z,4.86
2017-11-19T01:28:16.323Z,4.82
2017-11-19T01:29:16.315Z,4.82
2017-11-19T01:30:16.350Z,4.82
2017-11-19T01:31:16.303Z,4.87
2017-11-19T01:32:16.297Z,4.87
2017-11-19T01:33:16.289Z,4.93
2017-11-19T01:34:16.285Z,4.82
2017-11-19T01:35:16.280Z,4.92
2017-11-19T01:36:16.271Z,4.74
2017-11-19T01:37:16.266Z,4.86
2017-11-19T01:38:16.260Z,4.86
2017-11-19T01:39:16.353Z,4.77
2017-11-19T01:40:16.249Z,4.75
2017-11-19T01:41:16.241Z,4.74
2017-11-19T01:42:16.235Z,4.84
2017-11-19T01:43:16.227Z,4.75
2017-11-19T01:44:16.222Z,4.78
2017-11-19T01:45:16.216Z,4.74
2017-11-19T01:46:16.212Z,4.80
2017-11-19T01:47:16.216Z,4.70
2017-11-19T01:48:16.197Z,4.62
2017-11-19T01:49:16.195Z,4.62
2017-11-19T01:50:16.198Z,4.58
2017-11-19T01:51:16.253Z,4.68
2017-11-19T01:52:16.172Z,4.63
2017-11-19T01:53:16.166Z,4.75
2017-11-19T01:54:16.158Z,4.82
2017-11-19T01:55:16.155Z,4.70
2017-11-19T01:56:16.148Z,4.77
2017-11-19T01:57:16.142Z,4.74
2017-11-19T01:58:16.140Z,4.75
2017-11-19T01:59:16.128Z,4.73
2017-11-19T02:00:16.167Z,4.75
2017-11-19T02:01:16.117Z,4.75
2017-11-19T02:02:16.109Z,4.71
2017-11-19T02:03:16.103Z,4.60
2017-11-19T02:04:16.105Z,4.73
2017-11-19T02:05:16.090Z,4.84
2017-11-19T02:06:16.084Z,4.71
2017-11-19T02:07:16.072Z,4.73
2017-11-19T02:08:16.071Z,4.59
2017-11-19T02:09:16.067Z,4.63
2017-11-19T02:10:16.056Z,4.62
2017-11-19T02:11:16.053Z,4.55
2017-11-19T02:12:16.046Z,4.62
2017-11-19T02:13:16.039Z,4.52
2017-11-19T02:14:16.032Z,4.45
2017-11-19T02:15:16.027Z,4.52
2017-11-19T02:16:16.026Z,4.35
2017-11-19T02:17:16.027Z,4.42
2017-11-19T02:18:16.006Z,4.42
2017-11-19T02:19:16.002Z,4.32
2017-11-19T02:20:15.995Z,4.35
2017-11-19T02:21:15.992Z,4.37
2017-11-19T02:22:15.981Z,4.35
2017-11-19T02:23:15.978Z,4.32
2017-11-19T02:24:15.968Z,4.35
2017-11-19T02:25:15.963Z,4.38
2017-11-19T02:26:15.955Z,4.37
2017-11-19T02:27:15.948Z,4.32
2017-11-19T02:28:15.942Z,4.28
2017-11-19T02:29:15.935Z,4.38
2017-11-19T02:30:15.942Z,4.28
2017-11-19T02:31:15.945Z,4.38
2017-11-19T02:32:15.922Z,4.31
2017-11-19T02:33:15.928Z,4.32
2017-11-19T02:34:15.902Z,4.35
2017-11-19T02:35:15.895Z,4.34
2017-11-19T02:36:15.889Z,4.28
2017-11-19T02:37:15.890Z,4.22
2017-11-19T02:38:15.871Z,4.30
2017-11-19T02:39:15.870Z,4.35
2017-11-19T02:40:15.863Z,4.37
2017-11-19T02:41:15.857Z,4.37
2017-11-19T02:42:15.852Z,4.44
2017-11-19T02:43:15.841Z,4.42
2017-11-19T02:44:15.834Z,4.34
2017-11-19T02:45:15.841Z,4.35
2017-11-19T02:46:15.829Z,4.40
2017-11-19T02:47:15.813Z,4.42
2017-11-19T02:48:15.812Z,4.40
2017-11-19T02:49:15.810Z,4.34
2017-11-19T02:50:15.797Z,4.30
2017-11-19T02:51:15.794Z,4.35
2017-11-19T02:52:15.779Z,4.32
2017-11-19T02:53:15.774Z,4.37
2017-11-19T02:54:15.772Z,4.28
2017-11-19T02:55:15.766Z,4.22
2017-11-19T02:56:15.754Z,4.26
2017-11-19T02:57:15.749Z,4.19
2017-11-19T02:58:15.738Z,4.10
2017-11-19T02:59:15.743Z,4.17
2017-11-19T03:00:15.731Z,4.19
2017-11-19T03:01:15.722Z,4.16
2017-11-19T03:02:15.716Z,4.10
2017-11-19T03:03:15.708Z,4.13
2017-11-19T03:04:15.702Z,3.98
2017-11-19T03:05:15.692Z,4.06
2017-11-19T03:06:15.686Z,4.06
2017-11-19T03:07:15.686Z,4.08
2017-11-19T03:08:15.672Z,4.06
2017-11-19T03:09:15.665Z,4.08
2017-11-19T03:10:15.658Z,4.14
2017-11-19T03:11:15.652Z,3.99
2017-11-19T03:12:15.641Z,3.99
2017-11-19T03:13:15.636Z,3.99
2017-11-19T03:14:15.632Z,4.01
2017-11-19T03:15:15.621Z,4.06
2017-11-19T03:16:15.616Z,4.04
2017-11-19T03:17:15.608Z,4.02
2017-11-19T03:18:15.602Z,3.95
2017-11-19T03:19:15.592Z,4.02
2017-11-19T03:20:15.590Z,3.88
2017-11-19T03:21:15.579Z,3.98
2017-11-19T03:22:15.570Z,3.91
2017-11-19T03:23:15.565Z,3.87
2017-11-19T03:24:15.558Z,3.91
2017-11-19T03:25:15.550Z,3.88
2017-11-19T03:26:15.547Z,3.87
2017-11-19T03:27:15.556Z,3.78
2017-11-19T03:28:15.529Z,3.84
2017-11-19T03:29:15.522Z,3.88
2017-11-19T03:30:15.524Z,3.73
2017-11-19T03:31:15.508Z,3.86
2017-11-19T03:32:15.504Z,3.88
2017-11-19T03:33:15.490Z,3.84
2017-11-19T03:34:15.488Z,3.88
2017-11-19T03:35:15.478Z,3.88
2017-11-19T03:36:15.475Z,3.87
2017-11-19T03:37:15.462Z,3.88
2017-11-19T03:38:15.459Z,3.86
2017-11-19T03:39:15.448Z,3.76
2017-11-19T03:40:15.442Z,3.80
2017-11-19T03:41:15.433Z,3.87
2017-11-19T03:42:15.431Z,3.80
2017-11-19T03:43:15.418Z,3.88
2017-11-19T03:44:15.416Z,3.83
2017-11-19T03:45:15.405Z,3.76
2017-11-19T03:46:15.402Z,3.76
2017-11-19T03:47:15.396Z,3.76
2017-11-19T03:48:15.392Z,3.63
2017-11-19T03:49:15.373Z,3.65
2017-11-19T03:50:15.367Z,3.70
2017-11-19T03:51:15.352Z,3.70
2017-11-19T03:52:15.355Z,3.59
2017-11-19T03:53:15.343Z,3.60
2017-11-19T03:54:15.338Z,3.59
2017-11-19T03:55:15.338Z,3.60
2017-11-19T03:56:15.321Z,3.65
2017-11-19T03:57:15.319Z,3.58
2017-11-19T03:58:15.307Z,3.53
2017-11-19T03:59:15.297Z,3.55
2017-11-19T04:00:15.295Z,3.47
2017-11-19T04:01:15.287Z,3.48
2017-11-19T04:02:15.280Z,3.51
2017-11-19T04:03:15.305Z,3.55
2017-11-19T04:04:15.296Z,3.51
2017-11-19T04:05:15.252Z,3.47
2017-11-19T04:06:15.248Z,3.45
2017-11-19T04:07:15.251Z,3.45
2017-11-19T04:08:15.233Z,3.44
2017-11-19T04:09:15.224Z,3.32
2017-11-19T04:10:15.224Z,3.40
2017-11-19T04:11:15.211Z,3.37
2017-11-19T04:12:15.200Z,3.40
2017-11-19T04:13:15.193Z,3.37
2017-11-19T04:14:15.189Z,3.42
2017-11-19T04:15:15.178Z,3.32
2017-11-19T04:16:15.187Z,3.31
2017-11-19T04:17:15.181Z,3.26
2017-11-19T04:18:15.157Z,3.29
2017-11-19T04:19:15.150Z,3.32
2017-11-19T04:20:15.140Z,3.29
2017-11-19T04:21:15.145Z,3.29
2017-11-19T04:22:15.132Z,3.31
2017-11-19T04:23:15.116Z,3.29
2017-11-19T04:24:15.108Z,3.31
2017-11-19T04:25:15.102Z,3.25
2017-11-19T04:26:15.095Z,3.29
2017-11-19T04:27:15.090Z,3.32
2017-11-19T04:28:15.080Z,3.31
2017-11-19T04:29:15.072Z,3.29
2017-11-19T04:30:15.064Z,3.28
2017-11-19T04:31:15.053Z,3.23
2017-11-19T04:32:15.049Z,3.29
2017-11-19T04:33:15.041Z,3.31
2017-11-19T04:34:15.031Z,3.34
2017-11-19T04:35:15.026Z,3.31
2017-11-19T04:36:15.017Z,3.34
2017-11-19T04:37:15.008Z,3.32
2017-11-19T04:38:15.017Z,3.36
2017-11-19T04:39:14.996Z,3.32
2017-11-19T04:40:14.985Z,3.29
2017-11-19T04:41:14.983Z,3.37
2017-11-19T04:42:14.972Z,3.40
2017-11-19T04:43:14.957Z,3.40
2017-11-19T04:44:14.961Z,3.36
2017-11-19T04:45:14.957Z,3.37
2017-11-19T04:46:14.944Z,3.42
2017-11-19T04:47:14.942Z,3.42
2017-11-19T04:48:14.924Z,3.37
2017-11-19T04:49:14.919Z,3.40
2017-11-19T04:50:14.911Z,3.37
2017-11-19T04:51:14.905Z,3.34
2017-11-19T04:52:14.899Z,3.34
2017-11-19T04:53:14.891Z,3.31
2017-11-19T04:54:14.880Z,3.31
2017-11-19T04:55:14.874Z,3.32
2017-11-19T04:56:14.870Z,3.28
2017-11-19T04:57:14.877Z,3.37
2017-11-19T04:58:14.849Z,3.34
2017-11-19T04:59:14.841Z,3.42
2017-11-19T05:00:14.839Z,3.41
2017-11-19T05:01:14.867Z,3.50
2017-11-19T05:02:14.820Z,3.47
2017-11-19T05:03:14.813Z,3.45
2017-11-19T05:04:14.817Z,3.50
2017-11-19T05:05:14.803Z,3.53
2017-11-19T05:06:14.793Z,3.50
2017-11-19T05:07:14.791Z,3.51
2017-11-19T05:08:14.776Z,3.50
2017-11-19T05:09:14.770Z,3.50
2017-11-19T05:10:14.763Z,3.59
2017-11-19T05:11:14.764Z,3.59
2017-11-19T05:12:14.743Z,3.63
2017-11-19T05:13:14.746Z,3.60
2017-11-19T05:14:14.733Z,3.63
2017-11-19T05:15:14.733Z,3.56
2017-11-19T05:16:14.720Z,3.59
2017-11-19T05:17:14.715Z,3.69
2017-11-19T05:18:14.707Z,3.65
2017-11-19T05:19:14.692Z,3.68
2017-11-19T05:20:14.691Z,3.78
2017-11-19T05:21:14.685Z,3.78
2017-11-19T05:22:14.676Z,3.77
2017-11-19T05:23:14.668Z,3.74
2017-11-19T05:24:14.661Z,3.68
2017-11-19T05:25:14.655Z,3.65
2017-11-19T05:26:14.646Z,3.69
2017-11-19T05:27:14.639Z,3.70
2017-11-19T05:28:14.635Z,3.70
2017-11-19T05:29:14.625Z,3.66
2017-11-19T05:30:14.615Z,3.59
2017-11-19T05:31:14.609Z,3.66
2017-11-19T05:32:14.604Z,3.59
2017-11-19T05:33:14.596Z,3.51
2017-11-19T05:34:14.587Z,3.45
2017-11-19T05:35:14.582Z,3.60
2017-11-19T05:36:14.581Z,3.53
2017-11-19T05:37:14.563Z,3.47
2017-11-19T05:38:14.557Z,3.48
2017-11-19T05:39:14.550Z,3.51
2017-11-19T05:40:14.551Z,3.47
2017-11-19T05:41:14.534Z,3.44
2017-11-19T05:42:14.533Z,3.55
2017-11-19T05:43:14.519Z,3.59
2017-11-19T05:44:14.513Z,3.56
2017-11-19T05:45:14.506Z,3.50
2017-11-19T05:46:14.497Z,3.47
2017-11-19T05:47:14.489Z,3.62
2017-11-19T05:48:14.481Z,3.60
2017-11-19T05:49:14.479Z,3.56
2017-11-19T05:50:14.476Z,3.53
2017-11-19T05:51:14.464Z,3.59
2017-11-19T05:52:14.454Z,3.63
2017-11-19T05:53:14.445Z,3.62
2017-11-19T05:54:14.438Z,3.58
2017-11-19T05:55:14.428Z,3.68
2017-11-19T05:56:14.421Z,3.63
2017-11-19T05:57:14.417Z,3.66
2017-11-19T05:58:14.409Z,3.70
2017-11-19T05:59:14.400Z,3.69
2017-11-19T06:00:14.392Z,3.73
2017-11-19T06:01:14.388Z,3.74
2017-11-19T06:02:14.378Z,3.70
2017-11-19T06:03:14.369Z,3.73
2017-11-19T06:04:14.366Z,3.70
2017-11-19T06:05:14.427Z,3.63
2017-11-19T06:06:14.354Z,3.80
2017-11-19T06:07:14.341Z,3.69
2017-11-19T06:08:14.338Z,3.80
2017-11-19T06:09:14.323Z,3.80
2017-11-19T06:10:14.324Z,3.81
2017-11-19T06:11:14.319Z,3.86
2017-11-19T06:12:14.312Z,3.87
2017-11-19T06:13:14.299Z,3.83
2017-11-19T06:14:14.297Z,3.88
2017-11-19T06:15:14.288Z,3.86
2017-11-19T06:16:14.281Z,3.87
2017-11-19T06:17:14.277Z,3.87
2017-11-19T06:18:14.266Z,3.91
2017-11-19T06:19:14.256Z,3.87
2017-11-19T06:20:14.250Z,3.95
2017-11-19T06:21:14.246Z,3.92
2017-11-19T06:22:14.238Z,3.88
2017-11-19T06:23:14.229Z,3.84
2017-11-19T06:24:14.219Z,3.86
2017-11-19T06:25:14.230Z,3.88
2017-11-19T06:26:14.204Z,3.91
2017-11-19T06:27:14.197Z,3.88
2017-11-19T06:28:14.190Z,3.92
2017-11-19T06:29:14.183Z,3.98
2017-11-19T06:30:14.175Z,4.01
2017-11-19T06:31:14.177Z,3.95
2017-11-19T06:32:14.163Z,3.99
2017-11-19T06:33:14.155Z,4.01
2017-11-19T06:34:14.162Z,3.95
2017-11-19T06:35:14.140Z,3.96
2017-11-19T06:36:14.137Z,3.87
2017-11-19T06:37:14.124Z,3.92
2017-11-19T06:38:14.118Z,3.87
2017-11-19T06:39:14.111Z,3.84
2017-11-19T06:40:14.110Z,3.87
2017-11-19T06:41:14.101Z,3.94
2017-11-19T06:42:14.091Z,3.87
2017-11-19T06:43:14.083Z,3.92
2017-11-19T06:44:14.084Z,3.92
2017-11-19T06:45:14.066Z,3.91
2017-11-19T06:46:14.064Z,3.86
2017-11-19T06:47:14.063Z,3.98
2017-11-19T06:48:14.073Z,3.91
2017-11-19T06:49:14.039Z,3.96
2017-11-19T06:50:14.042Z,3.98
2017-11-19T06:51:14.029Z,3.94
2017-11-19T06:52:14.026Z,3.95
2017-11-19T06:53:14.005Z,4.10
2017-11-19T06:54:14.007Z,3.91
2017-11-19T06:55:13.997Z,4.02
2017-11-19T06:56:13.988Z,4.01
2017-11-19T06:57:13.984Z,4.05
2017-11-19T06:58:13.976Z,3.95
2017-11-19T06:59:13.963Z,3.99
2017-11-19T07:00:13.964Z,4.01
2017-11-19T07:01:13.965Z,4.02
2017-11-19T07:02:13.947Z,4.05
2017-11-19T07:03:13.938Z,4.05
2017-11-19T07:04:13.932Z,3.95
2017-11-19T07:05:13.925Z,4.04
2017-11-19T07:06:13.918Z,4.04
2017-11-19T07:07:13.911Z,4.05
2017-11-19T07:08:13.902Z,4.01
2017-11-19T07:09:13.897Z,4.01
2017-11-19T07:10:13.896Z,4.05
2017-11-19T07:11:13.883Z,4.08
2017-11-19T07:12:13.884Z,4.02
2017-11-19T07:13:13.874Z,4.12
2017-11-19T07:14:13.857Z,4.04
2017-11-19T07:15:13.854Z,4.08
2017-11-19T07:16:13.857Z,4.10
2017-11-19T07:17:13.840Z,4.04
2017-11-19T07:18:13.838Z,4.14
2017-11-19T07:19:13.826Z,4.19
2017-11-19T07:20:13.854Z,4.23
2017-11-19T07:21:13.847Z,4.13
2017-11-19T07:22:13.804Z,4.16
2017-11-19T07:23:13.840Z,4.22
2017-11-19T07:24:13.818Z,4.28
2017-11-19T07:25:13.894Z,4.30
2017-11-19T07:26:13.778Z,4.32
2017-11-19T07:27:13.779Z,4.26
2017-11-19T07:28:13.774Z,4.24
2017-11-19T07:29:13.756Z,4.30
2017-11-19T07:30:13.768Z,4.37
2017-11-19T07:31:13.747Z,4.37
2017-11-19T07:32:13.729Z,4.35
2017-11-19T07:33:13.748Z,4.35
2017-11-19T07:34:13.720Z,4.23
2017-11-19T07:35:13.721Z,4.41
2017-11-19T07:36:13.719Z,4.42
2017-11-19T07:37:13.717Z,4.30
2017-11-19T07:38:13.693Z,4.38
2017-11-19T07:39:13.689Z,4.34
2017-11-19T07:40:13.675Z,4.38
2017-11-19T07:41:13.676Z,4.42
2017-11-19T07:42:13.664Z,4.37
2017-11-19T07:43:13.656Z,4.37
2017-11-19T07:44:13.659Z,4.40
2017-11-19T07:45:13.654Z,4.37
2017-11-19T07:46:13.636Z,4.28
2017-11-19T07:47:13.631Z,4.34
2017-11-19T07:48:13.625Z,4.40
2017-11-19T07:49:13.618Z,4.50
2017-11-19T07:50:13.606Z,4.50
2017-11-19T07:51:13.613Z,4.62
2017-11-19T07:52:13.776Z,4.67
2017-11-19T07:53:13.627Z,4.59
2017-11-19T07:54:13.588Z,4.66
2017-11-19T07:55:13.599Z,4.62
2017-11-19T07:56:13.573Z,4.60
2017-11-19T07:57:13.564Z,4.58
2017-11-19T07:58:13.579Z,4.53
2017-11-19T07:59:13.570Z,4.48
2017-11-19T08:00:13.578Z,4.59
2017-11-19T08:01:13.539Z,4.60
2017-11-19T08:02:13.544Z,4.58
2017-11-19T08:03:13.527Z,4.56
2017-11-19T08:04:13.522Z,4.63
2017-11-19T08:05:13.530Z,4.59
2017-11-19T08:06:13.509Z,4.59
2017-11-19T08:07:13.511Z,4.62
2017-11-19T08:08:13.541Z,4.62
2017-11-19T08:09:13.588Z,4.60
2017-11-19T08:10:13.483Z,4.58
2017-11-19T08:11:13.477Z,4.63
2017-11-19T08:12:13.468Z,4.71
2017-11-19T08:13:13.459Z,4.60
2017-11-19T08:14:13.452Z,4.60
2017-11-19T08:15:13.458Z,4.50
2017-11-19T08:16:13.440Z,4.52
2017-11-19T08:17:13.434Z,4.58
2017-11-19T08:18:13.429Z,4.58
2017-11-19T08:19:13.435Z,4.68
2017-11-19T08:20:13.433Z,4.60
2017-11-19T08:21:13.413Z,4.66
2017-11-19T08:22:13.425Z,4.53
2017-11-19T08:23:13.401Z,4.45
2017-11-19T08:24:13.422Z,4.58
2017-11-19T08:25:13.407Z,4.59
2017-11-19T08:26:13.393Z,4.60
2017-11-19T08:27:13.387Z,4.62
2017-11-19T08:28:13.365Z,4.62
2017-11-19T08:29:13.377Z,4.63
2017-11-19T08:30:13.360Z,4.67
2017-11-19T08:31:13.372Z,4.62
2017-11-19T08:32:13.346Z,4.48
2017-11-19T08:33:13.352Z,4.45
2017-11-19T08:34:13.325Z,4.59
2017-11-19T08:35:13.342Z,4.77
2017-11-19T08:36:13.314Z,4.73
2017-11-19T08:37:13.311Z,4.94
2017-11-19T08:38:13.304Z,4.96
2017-11-19T08:39:13.299Z,4.99
2017-11-19T08:40:13.290Z,5.02
2017-11-19T08:41:13.284Z,5.04
2017-11-19T08:42:13.292Z,5.12
2017-11-19T08:43:13.277Z,5.20
2017-11-19T08:44:13.278Z,5.20
2017-11-19T08:45:13.279Z,5.33
2017-11-19T08:46:13.274Z,5.35
2017-11-19T08:47:13.284Z,5.28
2017-11-19T08:48:13.235Z,5.26
2017-11-19T08:49:13.237Z,5.32
2017-11-19T08:50:13.233Z,5.29
2017-11-19T08:51:13.228Z,5.30
2017-11-19T08:52:13.223Z,5.33
2017-11-19T08:53:13.254Z,5.30
2017-11-19T08:54:13.227Z,5.18
2017-11-19T08:55:13.202Z,5.25
2017-11-19T08:56:13.206Z,5.30
2017-11-19T08:57:13.190Z,5.33
2017-11-19T08:58:13.202Z,5.35
2017-11-19T08:59:13.197Z,5.50
2017-11-19T09:00:13.182Z,5.30
2017-11-19T09:01:13.183Z,5.39
2017-11-19T09:02:13.181Z,5.38
2017-11-19T09:03:13.153Z,5.26
2017-11-19T09:04:13.145Z,5.18
2017-11-19T09:05:13.144Z,5.11
2017-11-19T09:06:13.146Z,5.12
2017-11-19T09:07:13.135Z,5.11
2017-11-19T09:08:13.128Z,5.11
2017-11-19T09:09:13.139Z,5.18
2017-11-19T09:10:13.116Z,5.20
2017-11-19T09:11:13.113Z,5.25
2017-11-19T09:12:13.141Z,5.12
2017-11-19T09:13:13.102Z,5.20
2017-11-19T09:14:13.091Z,5.28
2017-11-19T09:15:13.085Z,5.32
2017-11-19T09:16:13.086Z,5.41
2017-11-19T09:17:13.081Z,5.51
2017-11-19T09:18:13.082Z,5.66
2017-11-19T09:19:13.117Z,5.69
2017-11-19T09:20:13.082Z,5.68
2017-11-19T09:21:13.081Z,5.64
2017-11-19T09:22:13.075Z,5.66
2017-11-19T09:23:13.058Z,5.65
2017-11-19T09:24:13.060Z,5.69
2017-11-19T09:25:13.055Z,5.57
2017-11-19T09:26:13.035Z,5.59
2017-11-19T09:27:13.075Z,5.65
2017-11-19T09:28:13.012Z,5.71
2017-11-19T09:29:13.013Z,5.65
2017-11-19T09:30:13.007Z,5.51
2017-11-19T09:31:12.997Z,5.54
2017-11-19T09:32:13.009Z,5.50
2017-11-19T09:33:12.993Z,5.50
2017-11-19T09:34:13.073Z,5.43
2017-11-19T09:35:12.976Z,5.39
2017-11-19T09:36:12.975Z,5.41
2017-11-19T09:37:12.962Z,5.33
2017-11-19T09:38:12.965Z,5.29
2017-11-19T09:39:12.949Z,5.26
2017-11-19T09:40:12.963Z,5.23
2017-11-19T09:41:12.962Z,5.36
2017-11-19T09:42:12.952Z,5.33
2017-11-19T09:43:12.934Z,5.32
2017-11-19T09:44:12.954Z,5.38
2017-11-19T09:45:12.918Z,5.32
2017-11-19T09:46:12.971Z,5.26
2017-11-19T09:47:12.992Z,5.35
2017-11-19T09:48:12.981Z,5.35
2017-11-19T09:49:12.946Z,5.41
2017-11-19T09:50:12.978Z,5.30
2017-11-19T09:51:12.905Z,5.35
2017-11-19T09:52:12.921Z,5.36
2017-11-19T09:53:12.887Z,5.33
2017-11-19T09:54:12.874Z,5.32
2017-11-19T09:55:12.963Z,5.43
2017-11-19T09:56:12.861Z,5.46
2017-11-19T09:57:12.863Z,5.39
2017-11-19T09:58:12.847Z,5.56
2017-11-19T09:59:21.552Z,5.57
2017-11-19T10:01:06.284Z,5.65
2017-11-19T10:02:07.082Z,5.59
2017-11-19T10:04:11.314Z,5.65
2017-11-19T10:05:12.231Z,5.65
2017-11-19T10:07:04.672Z,5.54
2017-11-19T10:08:04.648Z,5.61
2017-11-19T10:09:59.077Z,5.59
2017-11-19T10:10:59.022Z,5.68
2017-11-19T10:12:52.505Z,5.57
2017-11-19T10:13:52.495Z,5.59
2017-11-19T10:15:46.816Z,5.94
2017-11-19T10:16:46.802Z,5.87
2017-11-19T10:18:41.186Z,5.83
2017-11-19T10:19:41.163Z,5.75
2017-11-19T10:21:35.594Z,5.83
2017-11-19T10:22:35.572Z,5.82
2017-11-19T10:24:29.266Z,5.87
2017-11-19T10:25:29.994Z,5.83
2017-11-19T10:27:23.624Z,5.87
2017-11-19T10:28:23.590Z,5.99
2017-11-19T10:30:17.191Z,6.07
2017-11-19T10:31:16.988Z,6.05
2017-11-19T10:33:11.999Z,6.24
2017-11-19T10:34:11.393Z,6.16
2017-11-19T10:36:04.974Z,6.24
2017-11-19T10:37:04.945Z,6.19
2017-11-19T10:38:58.347Z,6.31
2017-11-19T10:39:58.321Z,6.33
2017-11-19T10:41:53.223Z,6.42
2017-11-19T10:42:53.084Z,6.41
2017-11-19T10:44:54.776Z,6.36
2017-11-19T10:45:54.444Z,6.41
2017-11-19T10:46:54.441Z,6.44
2017-11-19T10:47:54.462Z,6.28
2017-11-19T10:48:54.477Z,6.33
2017-11-19T10:49:54.422Z,6.45
2017-11-19T10:50:54.426Z,6.45
2017-11-19T10:51:54.425Z,6.36
2017-11-19T10:52:54.547Z,6.36
2017-11-19T10:53:54.404Z,6.41
2017-11-19T10:54:54.400Z,6.22
2017-11-19T10:55:54.481Z,6.28
2017-11-19T10:56:54.401Z,6.45
2017-11-19T10:57:54.387Z,6.51
2017-11-19T10:58:54.490Z,6.41
2017-11-19T10:59:54.473Z,6.36
2017-11-19T11:00:54.403Z,6.39
2017-11-19T11:01:54.373Z,6.48
2017-11-19T11:02:54.374Z,6.45
2017-11-19T11:03:56.266Z,6.51
2017-11-19T11:04:54.350Z,6.57
2017-11-19T11:05:54.388Z,6.46
2017-11-19T11:06:56.018Z,6.31
2017-11-19T11:07:54.361Z,6.30
2017-11-19T11:08:56.064Z,6.27
2017-11-19T11:09:54.331Z,6.27
2017-11-19T11:10:54.329Z,6.17
2017-11-19T11:11:54.319Z,6.27
2017-11-19T11:12:54.309Z,6.19
2017-11-19T11:13:54.354Z,6.27
2017-11-19T11:14:54.313Z,6.28
2017-11-19T11:15:54.307Z,6.39
2017-11-19T11:16:54.293Z,6.38
2017-11-19T11:17:54.684Z,6.33
2017-11-19T11:18:54.286Z,6.27
2017-11-19T11:19:54.296Z,6.27
2017-11-19T11:20:54.282Z,6.17
2017-11-19T11:21:54.623Z,6.20
2017-11-19T11:22:54.578Z,6.16
2017-11-19T11:23:54.318Z,6.08
2017-11-19T11:24:54.264Z,6.12
2017-11-19T11:25:54.259Z,6.22
2017-11-19T11:26:56.056Z,6.27
2017-11-19T11:27:56.031Z,6.26
2017-11-19T11:28:54.235Z,6.16
2017-11-19T11:29:54.227Z,6.17
2017-11-19T11:30:54.220Z,6.24
2017-11-19T11:31:54.243Z,6.28
2017-11-19T11:32:54.215Z,6.41
2017-11-19T11:33:54.209Z,6.45
2017-11-19T11:34:54.241Z,6.42
2017-11-19T11:35:55.323Z,6.57
2017-11-19T11:36:54.220Z,6.70
2017-11-19T11:37:54.196Z,6.66
2017-11-19T11:38:54.193Z,6.62
2017-11-19T11:39:54.180Z,6.67
2017-11-19T11:40:54.224Z,6.74
2017-11-19T11:41:54.179Z,6.77
2017-11-19T11:42:54.169Z,6.78
2017-11-19T11:43:54.181Z,6.82
2017-11-19T11:44:57.035Z,7.00
2017-11-19T11:45:54.151Z,6.93
2017-11-19T11:46:54.142Z,6.88
2017-11-19T11:47:54.144Z,6.78
2017-11-19T11:48:54.145Z,6.84
2017-11-19T11:49:54.132Z,6.77
2017-11-19T11:50:54.125Z,6.79
2017-11-19T11:51:54.135Z,6.82
2017-11-19T11:52:56.024Z,6.74
2017-11-19T11:53:54.114Z,6.63
2017-11-19T11:54:54.129Z,6.54
2017-11-19T11:55:54.105Z,6.67
2017-11-19T11:56:54.102Z,6.54
2017-11-19T11:57:54.101Z,6.46
2017-11-19T11:58:54.103Z,6.54
2017-11-19T11:59:54.103Z,6.48
2017-11-19T12:00:56.073Z,6.46
2017-11-19T12:01:54.077Z,6.41
2017-11-19T12:02:54.072Z,6.38
2017-11-19T12:03:54.436Z,6.42
2017-11-19T12:04:54.119Z,6.46
2017-11-19T12:05:54.072Z,6.46
2017-11-19T12:06:54.054Z,6.45
2017-11-19T12:07:54.046Z,6.33
2017-11-19T12:08:54.994Z,6.39
2017-11-19T12:09:54.069Z,6.44
2017-11-19T12:10:54.322Z,6.46
2017-11-19T12:11:54.031Z,6.45
2017-11-19T12:12:54.031Z,6.45
2017-11-19T12:13:54.046Z,6.48
2017-11-19T12:14:54.014Z,6.44
2017-11-19T12:15:54.008Z,6.44
2017-11-19T12:16:54.002Z,6.51
2017-11-19T12:17:54.004Z,6.52
2017-11-19T12:18:55.918Z,6.44
2017-11-19T12:19:53.989Z,6.52
2017-11-19T12:20:53.997Z,6.42
2017-11-19T12:21:53.983Z,6.38
2017-11-19T12:22:54.016Z,6.45
2017-11-19T12:23:53.970Z,6.49
2017-11-19T12:24:54.157Z,6.49
2017-11-19T12:25:53.965Z,6.56
2017-11-19T12:26:54.042Z,6.62
2017-11-19T12:27:53.957Z,6.64
2017-11-19T12:28:54.551Z,6.44
2017-11-19T12:29:53.973Z,6.49
2017-11-19T12:30:53.935Z,6.51
2017-11-19T12:31:53.930Z,6.57
2017-11-19T12:32:54.227Z,6.51
2017-11-19T12:33:54.658Z,6.51
2017-11-19T12:34:55.542Z,6.59
2017-11-19T12:35:54.546Z,6.60
2017-11-19T12:36:54.268Z,6.74
2017-11-19T12:37:53.912Z,6.67
2017-11-19T12:38:53.897Z,6.75
2017-11-19T12:39:53.890Z,6.64
2017-11-19T12:40:55.533Z,6.74
2017-11-19T12:41:53.893Z,6.67
2017-11-19T12:42:53.907Z,6.77
2017-11-19T12:43:53.883Z,6.78
2017-11-19T12:44:53.981Z,6.66
2017-11-19T12:45:53.876Z,6.70
2017-11-19T12:46:57.132Z,6.66
2017-11-19T12:47:53.871Z,6.74
2017-11-19T12:48:54.520Z,6.75
2017-11-19T12:49:55.547Z,6.78
2017-11-19T12:50:53.866Z,6.59
2017-11-19T12:51:54.510Z,6.44
2017-11-19T12:52:53.834Z,6.49
2017-11-19T12:53:54.091Z,6.46
2017-11-19T12:54:53.854Z,6.45
2017-11-19T12:55:53.829Z,6.41
2017-11-19T12:56:53.833Z,6.35
2017-11-19T12:57:54.358Z,6.20
2017-11-19T12:58:53.926Z,6.22
2017-11-19T12:59:56.587Z,6.08
2017-11-19T13:00:54.721Z,6.02
2017-11-19T13:01:54.269Z,6.05
2017-11-19T13:02:53.955Z,5.94
2017-11-19T13:03:53.982Z,6.05
2017-11-19T13:04:54.333Z,5.94
2017-11-19T13:05:54.082Z,6.05
2017-11-19T13:06:54.404Z,5.93
2017-11-19T13:07:56.693Z,5.97
2017-11-19T13:08:54.321Z,5.89
2017-11-19T13:09:53.773Z,5.89
2017-11-19T13:10:53.759Z,5.89
2017-11-19T13:11:56.085Z,5.93
2017-11-19T13:12:53.818Z,5.91
2017-11-19T13:13:53.775Z,5.86
2017-11-19T13:14:54.060Z,5.91
2017-11-19T13:15:56.550Z,5.86
2017-11-19T13:16:53.929Z,5.86
2017-11-19T13:17:53.710Z,5.87
2017-11-19T13:18:53.703Z,5.89
2017-11-19T13:19:53.700Z,5.90
2017-11-19T13:20:53.915Z,5.82
2017-11-19T13:21:53.710Z,5.93
2017-11-19T13:22:55.546Z,5.87
2017-11-19T13:23:55.543Z,5.98
2017-11-19T13:24:53.667Z,5.87
2017-11-19T13:25:53.663Z,5.90
2017-11-19T13:26:53.677Z,5.87
2017-11-19T13:27:53.646Z,5.94
2017-11-19T13:28:53.646Z,5.98
2017-11-19T13:29:53.643Z,6.05
2017-11-19T13:30:53.632Z,6.07
2017-11-19T13:31:53.622Z,6.01
2017-11-19T13:32:53.619Z,6.04